createdAt,value
2017-10-14T00:00:52.929Z,16.78
2017-10-14T00:01:52.843Z,16.55
2017-10-14T00:02:52.763Z,16.67
2017-10-14T00:03:52.679Z,16.70
2017-10-14T00:04:52.616Z,16.63
2017-10-14T00:05:52.575Z,16.73
2017-10-14T00:06:52.443Z,16.62
2017-10-14T00:07:52.360Z,16.63
2017-10-14T00:08:52.277Z,16.67
2017-10-14T00:09:52.198Z,16.71
2017-10-14T00:10:52.113Z,16.71
2017-10-14T00:11:52.036Z,16.60
2017-10-14T00:12:51.966Z,16.63
2017-10-14T00:13:51.874Z,16.50
2017-10-14T00:14:51.793Z,16.49
2017-10-14T00:15:51.710Z,16.40
2017-10-14T00:16:51.627Z,16.67
2017-10-14T00:17:51.545Z,16.60
2017-10-14T00:18:51.467Z,16.67
2017-10-14T00:19:51.381Z,16.68
2017-10-14T00:20:51.301Z,16.67
2017-10-14T00:21:51.221Z,16.62
2017-10-14T00:22:51.142Z,16.35
2017-10-14T00:23:51.061Z,16.60
2017-10-14T00:24:50.976Z,16.65
2017-10-14T00:25:50.933Z,16.63
2017-10-14T00:26:50.817Z,16.60
2017-10-14T00:27:50.745Z,16.50
2017-10-14T00:28:50.654Z,16.42
2017-10-14T00:29:50.573Z,16.50
2017-10-14T00:30:50.513Z,16.56
2017-10-14T00:31:50.413Z,16.40
2017-10-14T00:32:50.333Z,16.50
2017-10-14T00:33:50.244Z,16.35
2017-10-14T00:34:50.168Z,16.48
2017-10-14T00:35:50.082Z,16.52
2017-10-14T00:36:50.005Z,16.23
2017-10-14T00:37:49.928Z,16.31
2017-10-14T00:38:49.843Z,16.25
2017-10-14T00:39:49.765Z,16.25
2017-10-14T00:40:49.679Z,16.07
2017-10-14T00:41:49.601Z,16.25
2017-10-14T00:42:49.518Z,16.30
2017-10-14T00:43:49.441Z,16.41
2017-10-14T00:44:49.358Z,16.45
2017-10-14T00:45:49.274Z,16.53
2017-10-14T00:46:49.202Z,16.45
2017-10-14T00:47:49.114Z,16.30
2017-10-14T00:48:49.038Z,16.11
2017-10-14T00:49:48.950Z,16.09
2017-10-14T00:50:48.867Z,16.11
2017-10-14T00:51:48.783Z,16.23
2017-10-14T00:52:48.703Z,16.27
2017-10-14T00:53:48.636Z,16.40
2017-10-14T00:54:48.542Z,16.33
2017-10-14T00:55:48.461Z,16.22
2017-10-14T00:56:48.384Z,16.30
2017-10-14T00:57:48.303Z,16.16
2017-10-14T00:58:48.215Z,16.18
2017-10-14T00:59:48.137Z,16.18
2017-10-14T01:00:48.055Z,16.25
2017-10-14T01:01:47.979Z,16.25
2017-10-14T01:02:47.897Z,16.27
2017-10-14T01:03:47.813Z,16.26
2017-10-14T01:04:47.732Z,16.31
2017-10-14T01:05:47.648Z,16.25
2017-10-14T01:06:47.573Z,16.26
2017-10-14T01:07:47.488Z,16.27
2017-10-14T01:08:47.416Z,16.27
2017-10-14T01:09:47.324Z,16.12
2017-10-14T01:10:47.243Z,16.06
2017-10-14T01:11:47.165Z,16.22
2017-10-14T01:12:47.080Z,16.20
2017-10-14T01:13:47.001Z,16.22
2017-10-14T01:14:46.919Z,16.31
2017-10-14T01:15:46.841Z,16.14
2017-10-14T01:16:46.763Z,16.01
2017-10-14T01:17:46.681Z,15.84
2017-10-14T01:18:46.589Z,15.86
2017-10-14T01:19:46.517Z,16.00
2017-10-14T01:20:46.445Z,16.04
2017-10-14T01:21:46.354Z,16.06
2017-10-14T01:22:46.291Z,16.11
2017-10-14T01:23:46.188Z,16.07
2017-10-14T01:24:46.105Z,16.11
2017-10-14T01:25:46.026Z,16.23
2017-10-14T01:26:45.946Z,16.03
2017-10-14T01:27:45.865Z,16.00
2017-10-14T01:28:45.780Z,16.03
2017-10-14T01:29:45.694Z,16.12
2017-10-14T01:30:45.617Z,16.03
2017-10-14T01:31:45.544Z,16.09
2017-10-14T01:32:45.453Z,16.03
2017-10-14T01:33:45.375Z,16.14
2017-10-14T01:34:45.295Z,16.11
2017-10-14T01:35:45.215Z,16.12
2017-10-14T01:36:45.130Z,16.12
2017-10-14T01:37:45.051Z,15.99
2017-10-14T01:38:44.966Z,15.89
2017-10-14T01:39:44.888Z,15.94
2017-10-14T01:40:44.804Z,15.97
2017-10-14T01:41:44.724Z,15.93
2017-10-14T01:42:44.640Z,15.76
2017-10-14T01:43:44.559Z,15.82
2017-10-14T01:44:44.474Z,15.94
2017-10-14T01:45:44.401Z,15.86
2017-10-14T01:46:44.315Z,16.01
2017-10-14T01:47:44.230Z,15.94
2017-10-14T01:48:44.157Z,15.96
2017-10-14T01:49:44.072Z,15.94
2017-10-14T01:50:43.997Z,16.00
2017-10-14T01:51:43.908Z,15.85
2017-10-14T01:52:43.839Z,15.92
2017-10-14T01:53:43.745Z,15.93
2017-10-14T01:54:43.659Z,15.94
2017-10-14T01:55:43.583Z,15.76
2017-10-14T01:56:43.502Z,15.84
2017-10-14T01:57:43.430Z,15.82
2017-10-14T01:58:43.339Z,15.75
2017-10-14T01:59:43.261Z,15.75
2017-10-14T02:00:43.174Z,15.78
2017-10-14T02:01:43.091Z,15.76
2017-10-14T02:02:43.019Z,15.48
2017-10-14T02:03:42.932Z,15.52
2017-10-14T02:04:42.858Z,15.63
2017-10-14T02:05:42.767Z,15.76
2017-10-14T02:06:42.690Z,15.75
2017-10-14T02:07:42.606Z,15.76
2017-10-14T02:08:42.526Z,15.81
2017-10-14T02:09:42.438Z,15.75
2017-10-14T02:10:42.355Z,15.74
2017-10-14T02:11:42.289Z,15.63
2017-10-14T02:12:42.196Z,15.52
2017-10-14T02:13:42.118Z,15.56
2017-10-14T02:14:42.043Z,15.56
2017-10-14T02:15:41.953Z,15.38
2017-10-14T02:16:41.874Z,15.48
2017-10-14T02:17:41.817Z,15.59
2017-10-14T02:18:41.708Z,15.56
2017-10-14T02:19:41.633Z,15.57
2017-10-14T02:20:41.545Z,15.57
2017-10-14T02:21:41.460Z,15.59
2017-10-14T02:22:41.382Z,15.51
2017-10-14T02:23:41.297Z,15.54
2017-10-14T02:24:41.216Z,15.59
2017-10-14T02:25:41.135Z,15.61
2017-10-14T02:26:41.054Z,15.54
2017-10-14T02:27:40.966Z,15.54
2017-10-14T02:28:40.885Z,15.38
2017-10-14T02:29:40.805Z,15.43
2017-10-14T02:30:40.728Z,15.26
2017-10-14T02:31:40.638Z,15.26
2017-10-14T02:32:40.565Z,15.38
2017-10-14T02:33:40.482Z,15.26
2017-10-14T02:34:40.395Z,15.36
2017-10-14T02:35:40.318Z,15.24
2017-10-14T02:36:40.237Z,15.02
2017-10-14T02:37:40.153Z,15.09
2017-10-14T02:38:40.071Z,15.28
2017-10-14T02:39:39.991Z,15.38
2017-10-14T02:40:39.907Z,15.38
2017-10-14T02:41:39.828Z,15.39
2017-10-14T02:42:39.741Z,15.36
2017-10-14T02:43:39.658Z,15.43
2017-10-14T02:44:39.580Z,15.56
2017-10-14T02:45:39.499Z,15.52
2017-10-14T02:46:39.416Z,15.49
2017-10-14T02:47:39.336Z,15.51
2017-10-14T02:48:39.249Z,15.48
2017-10-14T02:49:39.167Z,15.38
2017-10-14T02:50:39.087Z,15.38
2017-10-14T02:51:39.007Z,15.31
2017-10-14T02:52:38.924Z,15.42
2017-10-14T02:53:38.845Z,15.45
2017-10-14T02:54:38.761Z,15.11
2017-10-14T02:55:38.677Z,15.15
2017-10-14T02:56:38.598Z,15.27
2017-10-14T02:57:38.514Z,15.13
2017-10-14T02:58:38.432Z,15.13
2017-10-14T02:59:38.356Z,15.27
2017-10-14T03:00:38.267Z,15.23
2017-10-14T03:01:38.188Z,15.35
2017-10-14T03:02:38.102Z,15.33
2017-10-14T03:03:38.018Z,15.19
2017-10-14T03:04:37.944Z,15.23
2017-10-14T03:05:37.865Z,15.31
2017-10-14T03:06:37.775Z,15.23
2017-10-14T03:07:37.696Z,15.27
2017-10-14T03:08:37.615Z,15.36
2017-10-14T03:09:37.536Z,15.41
2017-10-14T03:10:37.445Z,15.41
2017-10-14T03:11:37.373Z,15.33
2017-10-14T03:12:37.285Z,15.36
2017-10-14T03:13:37.203Z,15.12
2017-10-14T03:14:37.127Z,15.02
2017-10-14T03:15:37.038Z,15.03
2017-10-14T03:16:36.964Z,15.03
2017-10-14T03:17:36.891Z,14.98
2017-10-14T03:18:36.801Z,15.06
2017-10-14T03:19:36.708Z,14.91
2017-10-14T03:20:36.630Z,14.88
2017-10-14T03:21:36.545Z,14.88
2017-10-14T03:22:36.465Z,14.98
2017-10-14T03:23:36.380Z,15.19
2017-10-14T03:24:36.306Z,15.27
2017-10-14T03:25:36.228Z,15.13
2017-10-14T03:26:36.133Z,15.09
2017-10-14T03:27:36.066Z,15.20
2017-10-14T03:28:35.972Z,15.28
2017-10-14T03:29:35.889Z,15.30
2017-10-14T03:30:35.808Z,15.24
2017-10-14T03:31:35.728Z,15.23
2017-10-14T03:32:35.649Z,15.26
2017-10-14T03:33:35.561Z,15.17
2017-10-14T03:34:35.483Z,15.08
2017-10-14T03:35:35.403Z,15.12
2017-10-14T03:36:35.320Z,15.06
2017-10-14T03:37:35.229Z,14.81
2017-10-14T03:38:35.149Z,14.95
2017-10-14T03:39:35.072Z,15.06
2017-10-14T03:40:34.983Z,15.02
2017-10-14T03:41:35.133Z,14.93
2017-10-14T03:42:34.826Z,14.95
2017-10-14T03:43:34.745Z,15.08
2017-10-14T03:44:34.654Z,14.90
2017-10-14T03:45:34.575Z,14.93
2017-10-14T03:46:34.493Z,14.88
2017-10-14T03:47:34.409Z,14.99
2017-10-14T03:48:34.327Z,14.99
2017-10-14T03:49:34.249Z,14.91
2017-10-14T03:50:34.171Z,14.94
2017-10-14T03:51:34.080Z,14.91
2017-10-14T03:52:33.997Z,14.90
2017-10-14T03:53:33.921Z,14.99
2017-10-14T03:54:33.838Z,14.98
2017-10-14T03:55:33.749Z,14.84
2017-10-14T03:56:33.682Z,14.90
2017-10-14T03:57:33.595Z,14.75
2017-10-14T03:58:33.501Z,14.78
2017-10-14T03:59:33.431Z,14.78
2017-10-14T04:00:33.349Z,14.98
2017-10-14T04:01:33.264Z,14.87
2017-10-14T04:02:33.180Z,14.94
2017-10-14T04:03:33.092Z,14.95
2017-10-14T04:04:33.011Z,14.81
2017-10-14T04:05:32.929Z,14.80
2017-10-14T04:06:32.861Z,14.78
2017-10-14T04:07:32.763Z,14.75
2017-10-14T04:08:32.682Z,14.88
2017-10-14T04:09:32.598Z,14.81
2017-10-14T04:10:32.538Z,14.83
2017-10-14T04:11:32.438Z,14.80
2017-10-14T04:12:32.352Z,14.87
2017-10-14T04:13:32.273Z,14.80
2017-10-14T04:14:32.189Z,14.68
2017-10-14T04:15:32.104Z,14.80
2017-10-14T04:16:32.022Z,14.86
2017-10-14T04:17:31.942Z,14.91
2017-10-14T04:18:31.871Z,14.78
2017-10-14T04:19:31.777Z,14.81
2017-10-14T04:20:31.696Z,14.64
2017-10-14T04:21:31.613Z,14.68
2017-10-14T04:22:31.533Z,14.69
2017-10-14T04:23:31.451Z,14.53
2017-10-14T04:24:31.367Z,14.49
2017-10-14T04:25:31.284Z,14.54
2017-10-14T04:26:31.202Z,14.69
2017-10-14T04:27:31.119Z,14.72
2017-10-14T04:28:31.038Z,14.81
2017-10-14T04:29:30.963Z,14.67
2017-10-14T04:30:30.872Z,14.72
2017-10-14T04:31:30.793Z,14.53
2017-10-14T04:32:30.706Z,14.50
2017-10-14T04:33:30.635Z,14.54
2017-10-14T04:34:30.544Z,14.61
2017-10-14T04:35:30.456Z,14.67
2017-10-14T04:36:30.376Z,14.60
2017-10-14T04:37:30.292Z,14.57
2017-10-14T04:38:30.218Z,14.72
2017-10-14T04:39:30.137Z,14.47
2017-10-14T04:40:30.045Z,14.35
2017-10-14T04:41:29.965Z,14.52
2017-10-14T04:42:29.888Z,14.60
2017-10-14T04:43:29.801Z,14.62
2017-10-14T04:44:29.716Z,14.61
2017-10-14T04:45:29.636Z,14.69
2017-10-14T04:46:29.547Z,14.65
2017-10-14T04:47:29.468Z,14.65
2017-10-14T04:48:29.390Z,14.20
2017-10-14T04:49:29.305Z,14.20
2017-10-14T04:50:29.226Z,14.24
2017-10-14T04:51:29.144Z,14.44
2017-10-14T04:52:29.056Z,14.42
2017-10-14T04:53:28.970Z,14.20
2017-10-14T04:54:28.897Z,14.29
2017-10-14T04:55:28.824Z,14.34
2017-10-14T04:56:28.732Z,14.38
2017-10-14T04:57:28.644Z,14.43
2017-10-14T04:58:28.560Z,14.16
2017-10-14T04:59:28.483Z,14.28
2017-10-14T05:00:28.399Z,14.37
2017-10-14T05:01:28.314Z,14.34
2017-10-14T05:02:28.229Z,14.44
2017-10-14T05:03:28.150Z,14.39
2017-10-14T05:04:28.074Z,14.42
2017-10-14T05:05:28.001Z,14.17
2017-10-14T05:06:27.903Z,14.16
2017-10-14T05:07:27.817Z,14.25
2017-10-14T05:08:27.734Z,14.31
2017-10-14T05:09:27.658Z,14.21
2017-10-14T05:10:27.585Z,14.27
2017-10-14T05:11:27.499Z,14.17
2017-10-14T05:12:27.403Z,14.25
2017-10-14T05:13:27.327Z,14.16
2017-10-14T05:14:27.252Z,14.06
2017-10-14T05:15:27.163Z,14.14
2017-10-14T05:16:27.079Z,14.27
2017-10-14T05:17:26.994Z,14.20
2017-10-14T05:18:26.916Z,14.07
2017-10-14T05:19:26.838Z,14.10
2017-10-14T05:20:26.747Z,14.02
2017-10-14T05:21:26.662Z,14.02
2017-10-14T05:22:26.577Z,14.04
2017-10-14T05:23:26.497Z,14.02
2017-10-14T05:24:26.418Z,14.04
2017-10-14T05:25:26.330Z,14.14
2017-10-14T05:26:26.249Z,13.95
2017-10-14T05:27:26.166Z,14.09
2017-10-14T05:28:26.093Z,14.12
2017-10-14T05:29:26.000Z,14.06
2017-10-14T05:30:25.921Z,14.09
2017-10-14T05:31:25.835Z,14.09
2017-10-14T05:32:25.755Z,14.07
2017-10-14T05:33:25.683Z,14.09
2017-10-14T05:34:25.593Z,14.06
2017-10-14T05:35:25.523Z,14.09
2017-10-14T05:36:25.422Z,14.17
2017-10-14T05:37:25.333Z,14.16
2017-10-14T05:38:25.260Z,14.06
2017-10-14T05:39:25.174Z,13.99
2017-10-14T05:40:25.088Z,14.04
2017-10-14T05:41:25.010Z,14.07
2017-10-14T05:42:24.922Z,14.09
2017-10-14T05:43:24.841Z,14.02
2017-10-14T05:44:24.762Z,14.10
2017-10-14T05:45:24.676Z,14.21
2017-10-14T05:46:24.598Z,14.13
2017-10-14T05:47:24.517Z,14.12
2017-10-14T05:48:24.429Z,14.04
2017-10-14T05:49:24.343Z,13.95
2017-10-14T05:50:24.263Z,13.94
2017-10-14T05:51:24.183Z,13.98
2017-10-14T05:52:24.096Z,14.07
2017-10-14T05:53:24.021Z,13.94
2017-10-14T05:54:23.930Z,14.04
2017-10-14T05:55:23.850Z,14.21
2017-10-14T05:56:23.761Z,14.28
2017-10-14T05:57:23.683Z,14.38
2017-10-14T05:58:23.620Z,14.32
2017-10-14T05:59:23.524Z,14.39
2017-10-14T06:00:23.436Z,14.29
2017-10-14T06:01:23.352Z,14.28
2017-10-14T06:02:23.296Z,14.38
2017-10-14T06:03:23.192Z,14.27
2017-10-14T06:04:23.110Z,14.14
2017-10-14T06:05:23.022Z,14.12
2017-10-14T06:06:22.939Z,14.21
2017-10-14T06:07:22.860Z,14.01
2017-10-14T06:08:22.777Z,14.10
2017-10-14T06:09:22.705Z,14.27
2017-10-14T06:10:22.613Z,14.14
2017-10-14T06:11:22.527Z,14.02
2017-10-14T06:12:22.446Z,13.99
2017-10-14T06:13:22.361Z,14.06
2017-10-14T06:14:22.280Z,14.09
2017-10-14T06:15:22.198Z,14.04
2017-10-14T06:16:22.118Z,14.13
2017-10-14T06:17:22.031Z,14.09
2017-10-14T06:18:21.946Z,14.09
2017-10-14T06:19:21.866Z,14.13
2017-10-14T06:20:21.793Z,14.14
2017-10-14T06:21:21.700Z,14.09
2017-10-14T06:22:21.628Z,14.14
2017-10-14T06:23:21.537Z,14.16
2017-10-14T06:24:21.452Z,14.20
2017-10-14T06:25:21.374Z,14.16
2017-10-14T06:26:21.286Z,14.24
2017-10-14T06:27:21.213Z,14.04
2017-10-14T06:28:21.140Z,14.07
2017-10-14T06:29:21.038Z,14.20
2017-10-14T06:30:20.958Z,14.17
2017-10-14T06:31:20.885Z,14.21
2017-10-14T06:32:20.789Z,14.19
2017-10-14T06:33:20.708Z,14.27
2017-10-14T06:34:20.620Z,14.27
2017-10-14T06:35:20.551Z,14.17
2017-10-14T06:36:20.460Z,14.31
2017-10-14T06:37:20.380Z,14.27
2017-10-14T06:38:20.298Z,14.28
2017-10-14T06:39:20.214Z,14.29
2017-10-14T06:40:20.129Z,14.37
2017-10-14T06:41:20.049Z,14.34
2017-10-14T06:42:19.967Z,14.31
2017-10-14T06:43:19.888Z,14.14
2017-10-14T06:44:19.815Z,14.06
2017-10-14T06:45:19.745Z,14.28
2017-10-14T06:46:19.632Z,14.34
2017-10-14T06:47:19.580Z,14.34
2017-10-14T06:48:19.475Z,14.42
2017-10-14T06:49:19.384Z,14.37
2017-10-14T06:50:19.319Z,14.35
2017-10-14T06:51:19.268Z,14.20
2017-10-14T06:52:19.147Z,14.35
2017-10-14T06:53:19.095Z,14.29
2017-10-14T06:54:18.981Z,14.31
2017-10-14T06:55:18.901Z,14.17
2017-10-14T06:56:18.817Z,14.27
2017-10-14T06:57:18.730Z,14.25
2017-10-14T06:58:18.648Z,14.32
2017-10-14T06:59:18.570Z,14.38
2017-10-14T07:00:18.484Z,14.27
2017-10-14T07:01:18.413Z,14.27
2017-10-14T07:02:18.318Z,14.19
2017-10-14T07:03:18.239Z,14.07
2017-10-14T07:04:18.151Z,14.10
2017-10-14T07:05:18.074Z,13.80
2017-10-14T07:06:17.994Z,13.80
2017-10-14T07:07:17.914Z,13.88
2017-10-14T07:08:17.843Z,14.16
2017-10-14T07:09:17.753Z,14.02
2017-10-14T07:10:17.672Z,14.19
2017-10-14T07:11:17.589Z,14.35
2017-10-14T07:12:17.502Z,14.38
2017-10-14T07:13:17.419Z,14.31
2017-10-14T07:14:17.334Z,14.27
2017-10-14T07:15:17.267Z,14.53
2017-10-14T07:16:17.186Z,14.64
2017-10-14T07:17:17.096Z,14.61
2017-10-14T07:18:17.012Z,14.75
2017-10-14T07:19:16.929Z,14.81
2017-10-14T07:20:16.845Z,15.03
2017-10-14T07:21:16.766Z,15.05
2017-10-14T07:22:16.692Z,15.08
2017-10-14T07:23:16.605Z,15.08
2017-10-14T07:24:16.534Z,15.05
2017-10-14T07:25:16.445Z,15.08
2017-10-14T07:26:16.362Z,15.12
2017-10-14T07:27:16.281Z,15.23
2017-10-14T07:28:16.201Z,15.24
2017-10-14T07:29:16.127Z,15.54
2017-10-14T07:30:16.064Z,15.54
2017-10-14T07:31:15.966Z,15.60
2017-10-14T07:32:15.892Z,15.76
2017-10-14T07:33:15.799Z,15.84
2017-10-14T07:34:15.725Z,16.03
2017-10-14T07:35:15.639Z,15.89
2017-10-14T07:36:15.560Z,16.07
2017-10-14T07:37:15.476Z,16.37
2017-10-14T07:38:15.401Z,16.44
2017-10-14T07:39:15.329Z,16.62
2017-10-14T07:40:15.254Z,16.88
2017-10-14T07:41:15.167Z,16.98
2017-10-14T07:42:15.089Z,17.22
2017-10-14T07:43:15.020Z,17.38
2017-10-14T07:44:14.934Z,17.51
2017-10-14T07:45:14.865Z,17.62
2017-10-14T07:46:14.778Z,17.64
2017-10-14T07:47:14.707Z,17.82
2017-10-14T07:48:14.624Z,17.85
2017-10-14T07:49:14.549Z,18.12
2017-10-14T07:50:14.473Z,18.39
2017-10-14T07:51:14.394Z,18.54
2017-10-14T07:52:14.364Z,18.79
2017-10-14T07:53:14.254Z,18.99
2017-10-14T07:54:14.172Z,19.25
2017-10-14T07:55:14.104Z,19.38
2017-10-14T07:56:14.028Z,19.48
2017-10-14T07:57:13.953Z,19.72
2017-10-14T07:58:13.878Z,19.80
2017-10-14T07:59:13.818Z,20.13
2017-10-14T08:00:13.734Z,20.39
2017-10-14T08:01:13.662Z,20.66
2017-10-14T08:02:13.598Z,20.69
2017-10-14T08:03:13.522Z,20.79
2017-10-14T08:04:13.445Z,20.76
2017-10-14T08:05:13.411Z,20.91
2017-10-14T08:06:13.306Z,21.17
2017-10-14T08:07:13.239Z,21.34
2017-10-14T08:08:13.165Z,21.56
2017-10-14T08:09:13.085Z,21.57
2017-10-14T08:10:13.030Z,21.72
2017-10-14T08:11:12.967Z,22.10
2017-10-14T08:12:12.887Z,22.14
2017-10-14T08:13:12.809Z,22.06
2017-10-14T08:14:12.745Z,22.28
2017-10-14T08:15:12.668Z,21.99
2017-10-14T08:16:12.629Z,21.95
2017-10-14T08:17:12.525Z,22.31
2017-10-14T08:18:12.482Z,22.29
2017-10-14T08:19:12.394Z,22.35
2017-10-14T08:20:12.317Z,22.46
2017-10-14T08:21:12.253Z,22.38
2017-10-14T08:22:12.180Z,22.60
2017-10-14T08:23:12.118Z,22.78
2017-10-14T08:24:12.043Z,23.20
2017-10-14T08:25:11.973Z,23.52
2017-10-14T08:26:11.939Z,23.60
2017-10-14T08:27:11.839Z,23.42
2017-10-14T08:28:11.765Z,23.55
2017-10-14T08:29:11.699Z,23.53
2017-10-14T08:30:11.632Z,23.72
2017-10-14T08:31:11.575Z,23.76
2017-10-14T08:32:11.508Z,23.95
2017-10-14T08:33:11.427Z,23.94
2017-10-14T08:34:11.355Z,24.22
2017-10-14T08:35:11.287Z,24.41
2017-10-14T08:36:11.215Z,24.73
2017-10-14T08:37:11.149Z,24.29
2017-10-14T08:38:11.093Z,24.41
2017-10-14T08:39:11.019Z,24.20
2017-10-14T08:40:10.949Z,24.56
2017-10-14T08:41:10.880Z,24.79
2017-10-14T08:42:10.810Z,24.76
2017-10-14T08:43:10.744Z,24.75
2017-10-14T08:44:10.676Z,25.10
2017-10-14T08:45:10.599Z,25.10
2017-10-14T08:46:10.543Z,25.50
2017-10-14T08:47:10.471Z,25.80
2017-10-14T08:48:10.404Z,25.74
2017-10-14T08:49:10.332Z,26.05
2017-10-14T08:50:10.273Z,26.02
2017-10-14T08:51:10.196Z,26.18
2017-10-14T08:52:10.138Z,26.20
2017-10-14T08:53:10.068Z,26.29
2017-10-14T08:54:09.992Z,25.99
2017-10-14T08:55:09.933Z,25.94
2017-10-14T08:56:09.862Z,25.90
2017-10-14T08:57:09.798Z,26.36
2017-10-14T08:58:09.730Z,26.36
2017-10-14T08:59:09.665Z,26.32
2017-10-14T09:00:09.599Z,26.55
2017-10-14T09:01:09.525Z,26.46
2017-10-14T09:02:09.454Z,26.49
2017-10-14T09:03:09.390Z,26.55
2017-10-14T09:04:09.325Z,26.83
2017-10-14T09:05:09.253Z,26.91
2017-10-14T09:06:09.187Z,27.20
2017-10-14T09:07:09.113Z,26.98
2017-10-14T09:08:09.055Z,26.92
2017-10-14T09:09:08.986Z,27.13
2017-10-14T09:10:08.912Z,27.05
2017-10-14T09:11:08.844Z,27.01
2017-10-14T09:12:08.785Z,27.05
2017-10-14T09:13:08.707Z,27.50
2017-10-14T09:14:08.647Z,27.48
2017-10-14T09:15:08.577Z,27.28
2017-10-14T09:16:08.506Z,27.31
2017-10-14T09:17:09.162Z,27.51
2017-10-14T09:18:08.373Z,27.35
2017-10-14T09:19:08.309Z,27.57
2017-10-14T09:20:08.254Z,27.76
2017-10-14T09:21:08.173Z,27.91
2017-10-14T09:22:08.104Z,27.92
2017-10-14T09:23:08.054Z,27.79
2017-10-14T09:24:07.976Z,27.88
2017-10-14T09:25:07.910Z,27.98
2017-10-14T09:26:07.882Z,27.91
2017-10-14T09:27:07.766Z,28.06
2017-10-14T09:28:07.704Z,28.23
2017-10-14T09:29:07.631Z,28.44
2017-10-14T09:30:07.576Z,28.38
2017-10-14T09:31:07.504Z,28.51
2017-10-14T09:32:07.445Z,28.58
2017-10-14T09:33:07.376Z,28.38
2017-10-14T09:34:07.312Z,28.91
2017-10-14T09:35:07.271Z,29.22
2017-10-14T09:36:07.175Z,29.10
2017-10-14T09:37:07.103Z,29.07
2017-10-14T09:38:07.078Z,29.22
2017-10-14T09:39:06.976Z,29.07
2017-10-14T09:40:07.012Z,28.90
2017-10-14T09:41:06.852Z,29.41
2017-10-14T09:42:06.789Z,29.04
2017-10-14T09:43:06.710Z,29.23
2017-10-14T09:44:06.659Z,29.25
2017-10-14T09:45:06.574Z,29.57
2017-10-14T09:46:06.508Z,29.45
2017-10-14T09:47:06.449Z,29.34
2017-10-14T09:48:06.378Z,29.55
2017-10-14T09:49:06.308Z,29.75
2017-10-14T09:50:06.240Z,29.37
2017-10-14T09:51:06.181Z,29.43
2017-10-14T09:52:06.121Z,29.43
2017-10-14T09:53:06.038Z,29.62
2017-10-14T09:54:05.977Z,29.60
2017-10-14T09:55:05.914Z,29.94
2017-10-14T09:56:05.841Z,30.14
2017-10-14T09:57:05.774Z,29.93
2017-10-14T09:58:05.705Z,29.19
2017-10-14T09:59:05.656Z,29.22
2017-10-14T10:00:05.571Z,29.37
2017-10-14T10:01:05.503Z,29.65
2017-10-14T10:02:05.433Z,29.45
2017-10-14T10:03:05.367Z,29.16
2017-10-14T10:04:05.299Z,29.25
2017-10-14T10:05:05.225Z,29.59
2017-10-14T10:06:05.179Z,28.93
2017-10-14T10:07:05.101Z,29.23
2017-10-14T10:08:05.027Z,29.23
2017-10-14T10:09:04.950Z,29.38
2017-10-14T10:10:04.884Z,29.93
2017-10-14T10:11:04.812Z,29.99
2017-10-14T10:12:04.748Z,29.97
2017-10-14T10:13:04.676Z,29.62
2017-10-14T10:14:04.613Z,29.53
2017-10-14T10:15:04.539Z,29.59
2017-10-14T10:16:04.473Z,29.63
2017-10-14T10:17:04.391Z,29.37
2017-10-14T10:18:04.326Z,29.38
2017-10-14T10:19:04.255Z,29.56
2017-10-14T10:20:04.201Z,29.49
2017-10-14T10:21:04.113Z,29.43
2017-10-14T10:22:04.049Z,29.10
2017-10-14T10:23:03.976Z,29.16
2017-10-14T10:24:03.909Z,28.59
2017-10-14T10:25:03.833Z,28.63
2017-10-14T10:26:03.768Z,28.87
2017-10-14T10:27:03.699Z,29.23
2017-10-14T10:28:03.627Z,29.34
2017-10-14T10:29:03.559Z,28.97
2017-10-14T10:30:03.489Z,28.75
2017-10-14T10:31:03.420Z,28.85
2017-10-14T10:32:03.362Z,28.78
2017-10-14T10:33:03.299Z,28.80
2017-10-14T10:34:03.212Z,28.73
2017-10-14T10:35:03.137Z,28.66
2017-10-14T10:36:03.068Z,27.62
2017-10-14T10:37:03.009Z,28.17
2017-10-14T10:38:02.925Z,28.56
2017-10-14T10:39:02.855Z,28.41
2017-10-14T10:40:02.788Z,28.25
2017-10-14T10:41:02.725Z,28.56
2017-10-14T10:42:02.647Z,27.89
2017-10-14T10:43:02.575Z,28.40
2017-10-14T10:44:02.506Z,28.68
2017-10-14T10:45:02.432Z,28.90
2017-10-14T10:46:02.361Z,28.69
2017-10-14T10:47:02.292Z,28.66
2017-10-14T10:48:02.225Z,28.82
2017-10-14T10:49:02.150Z,28.69
2017-10-14T10:50:02.081Z,28.41
2017-10-14T10:51:02.017Z,28.23
2017-10-14T10:52:01.947Z,28.28
2017-10-14T10:53:01.880Z,28.54
2017-10-14T10:54:01.805Z,28.66
2017-10-14T10:55:01.748Z,28.70
2017-10-14T10:56:01.669Z,28.69
2017-10-14T10:57:01.608Z,28.54
2017-10-14T10:58:01.536Z,28.66
2017-10-14T10:59:01.465Z,28.63
2017-10-14T11:00:01.395Z,28.69
2017-10-14T11:01:01.345Z,28.65
2017-10-14T11:02:01.262Z,28.63
2017-10-14T11:03:01.199Z,28.35
2017-10-14T11:04:01.129Z,28.43
2017-10-14T11:05:01.066Z,28.41
2017-10-14T11:06:00.998Z,28.70
2017-10-14T11:07:00.935Z,28.56
2017-10-14T11:08:00.880Z,28.58
2017-10-14T11:09:00.805Z,28.72
2017-10-14T11:10:00.740Z,28.84
2017-10-14T11:11:00.678Z,28.62
2017-10-14T11:12:00.603Z,28.73
2017-10-14T11:13:00.547Z,29.08
2017-10-14T11:14:00.481Z,28.91
2017-10-14T11:15:00.424Z,28.91
2017-10-14T11:16:00.355Z,28.95
2017-10-14T11:17:00.287Z,28.93
2017-10-14T11:18:00.228Z,28.58
2017-10-14T11:19:00.169Z,28.75
2017-10-14T11:20:00.103Z,28.68
2017-10-14T11:21:00.038Z,28.66
2017-10-14T11:21:59.979Z,28.72
2017-10-14T11:22:59.911Z,28.85
2017-10-14T11:23:59.848Z,29.07
2017-10-14T11:24:59.778Z,28.70
2017-10-14T11:25:59.726Z,28.58
2017-10-14T11:26:59.658Z,28.66
2017-10-14T11:27:59.595Z,28.93
2017-10-14T11:28:59.528Z,29.16
2017-10-14T11:29:59.477Z,29.19
2017-10-14T11:30:59.403Z,28.88
2017-10-14T11:31:59.338Z,28.95
2017-10-14T11:32:59.265Z,28.73
2017-10-14T11:33:59.199Z,28.73
2017-10-14T11:34:59.172Z,28.68
2017-10-14T11:35:59.074Z,28.75
2017-10-14T11:36:59.024Z,29.08
2017-10-14T11:37:58.926Z,28.95
2017-10-14T11:38:58.865Z,29.31
2017-10-14T11:39:58.803Z,29.47
2017-10-14T11:40:58.727Z,29.52
2017-10-14T11:41:58.656Z,28.93
2017-10-14T11:42:58.598Z,29.22
2017-10-14T11:43:58.518Z,28.66
2017-10-14T11:44:58.455Z,29.23
2017-10-14T11:45:58.392Z,28.95
2017-10-14T11:46:58.309Z,29.19
2017-10-14T11:47:58.240Z,29.45
2017-10-14T11:48:58.164Z,29.35
2017-10-14T11:49:58.093Z,29.03
2017-10-14T11:50:58.033Z,29.35
2017-10-14T11:51:57.969Z,29.44
2017-10-14T11:52:57.879Z,29.37
2017-10-14T11:53:57.824Z,29.06
2017-10-14T11:54:57.753Z,29.01
2017-10-14T11:55:57.672Z,28.85
2017-10-14T11:56:57.598Z,28.91
2017-10-14T11:57:57.535Z,28.90
2017-10-14T11:58:57.466Z,28.91
2017-10-14T11:59:57.396Z,28.95
2017-10-14T12:00:57.313Z,29.08
2017-10-14T12:01:57.259Z,28.47
2017-10-14T12:02:57.172Z,28.29
2017-10-14T12:03:57.104Z,28.41
2017-10-14T12:04:57.034Z,28.25
2017-10-14T12:05:56.959Z,28.04
2017-10-14T12:06:56.919Z,28.28
2017-10-14T12:07:56.815Z,28.69
2017-10-14T12:08:56.747Z,28.44
2017-10-14T12:09:56.672Z,27.84
2017-10-14T12:10:56.609Z,28.04
2017-10-14T12:11:56.527Z,28.13
2017-10-14T12:12:56.465Z,27.92
2017-10-14T12:13:56.387Z,27.74
2017-10-14T12:14:56.313Z,27.61
2017-10-14T12:15:56.239Z,27.84
2017-10-14T12:16:56.182Z,27.79
2017-10-14T12:17:56.098Z,27.88
2017-10-14T12:18:56.024Z,27.84
2017-10-14T12:19:55.949Z,27.43
2017-10-14T12:20:55.890Z,27.42
2017-10-14T12:21:55.804Z,27.57
2017-10-14T12:22:55.739Z,27.69
2017-10-14T12:23:55.686Z,27.64
2017-10-14T12:24:55.602Z,27.48
2017-10-14T12:25:55.523Z,27.51
2017-10-14T12:26:55.445Z,27.48
2017-10-14T12:27:55.374Z,27.38
2017-10-14T12:28:55.302Z,27.38
2017-10-14T12:29:55.242Z,27.33
2017-10-14T12:30:55.154Z,27.35
2017-10-14T12:31:55.079Z,27.28
2017-10-14T12:32:55.009Z,27.36
2017-10-14T12:33:54.942Z,27.35
2017-10-14T12:34:54.872Z,27.26
2017-10-14T12:35:54.796Z,27.29
2017-10-14T12:36:54.721Z,27.21
2017-10-14T12:37:54.649Z,27.19
2017-10-14T12:38:54.593Z,27.10
2017-10-14T12:39:54.500Z,27.11
2017-10-14T12:40:54.430Z,27.09
2017-10-14T12:41:54.354Z,26.86
2017-10-14T12:42:54.284Z,26.62
2017-10-14T12:43:54.220Z,26.73
2017-10-14T12:44:54.139Z,26.57
2017-10-14T12:45:54.065Z,26.67
2017-10-14T12:46:53.991Z,26.72
2017-10-14T12:47:53.931Z,26.79
2017-10-14T12:48:53.845Z,26.49
2017-10-14T12:49:53.770Z,26.43
2017-10-14T12:50:53.699Z,26.35
2017-10-14T12:51:53.630Z,26.47